Terminal Aerodrome Forecast
Issued by NWS

Home | Current Version | Previous Version | Text Only | Print | Product List | Glossary On
Versions: 1 2 3 4 5 6 7 8 9 10 11 12 13 14 15 16
000
FTUS43 KEAX 011724
TAFSTJ
TAF
KSTJ 011724Z 0118/0218 19012G20KT P6SM SCT250
     FM020000 17006KT P6SM SCT120
     FM021200 19009KT P6SM VCSH BKN100=

USA.gov is the U.S. government's official web portal to all federal, state and local government web resources and services.